Time;durP1;ratioP1;P1;durP2;ratioP2;P2;SDS_P1;SDS_P2;PMS_P1;PMS_P2;Temp;Humidity;BMP_temperature;BMP_pressure;BME280_temperature;BME280_humidity;BME280_pressure;Samples;Min_cycle;Max_cycle;Signal;HPM_P1;HPM_P2
2021/08/24 00:01:34;;;;;;;5.40;2.50;;;17.40;98.00;;;;;;4951383;29;20480;-85
2021/08/24 00:04:00;;;;;;;4.38;2.50;;;17.40;98.20;;;;;;4952688;29;20059;-85
2021/08/24 00:06:26;;;;;;;5.82;2.65;;;17.40;98.20;;;;;;4952732;28;20034;-85
2021/08/24 00:08:51;;;;;;;4.85;2.60;;;17.40;98.50;;;;;;4956440;29;20031;-85
2021/08/24 00:11:17;;;;;;;5.18;2.33;;;17.40;98.30;;;;;;4955906;29;20396;-85
2021/08/24 00:13:43;;;;;;;5.03;2.47;;;17.40;98.30;;;;;;4954857;29;20031;-86
2021/08/24 00:16:08;;;;;;;4.45;2.17;;;17.40;98.10;;;;;;4954573;28;20123;-85
2021/08/24 00:18:34;;;;;;;4.57;2.00;;;17.40;98.00;;;;;;4955077;29;20028;-85
2021/08/24 00:21:00;;;;;;;4.20;2.05;;;17.40;97.90;;;;;;4954296;29;20027;-86
2021/08/24 00:23:28;;;;;;;5.03;2.13;;;17.40;97.70;;;;;;4956123;29;20034;-86
2021/08/24 00:25:55;;;;;;;3.83;1.90;;;17.40;97.70;;;;;;4954062;28;20046;-85
2021/08/24 00:28:23;;;;;;;5.15;2.25;;;17.50;97.30;;;;;;4954618;29;20019;-85
2021/08/24 00:30:49;;;;;;;3.33;2.00;;;17.50;97.10;;;;;;4953944;29;20034;-85
2021/08/24 00:33:17;;;;;;;4.00;1.90;;;17.60;96.90;;;;;;4954485;29;20358;-85
2021/08/24 00:35:43;;;;;;;4.05;2.15;;;17.50;96.80;;;;;;4954404;28;20064;-86
2021/08/24 00:38:15;;;;;;;3.17;2.00;;;17.50;96.70;;;;;;4955852;29;20023;-85
2021/08/24 00:40:41;;;;;;;3.78;2.00;;;17.60;96.70;;;;;;4957281;29;20043;-85
2021/08/24 00:43:09;;;;;;;4.78;1.88;;;17.60;96.60;;;;;;4959230;29;20019;-86
2021/08/24 00:45:40;;;;;;;4.25;2.00;;;17.50;96.60;;;;;;4956043;28;20039;-86
2021/08/24 00:48:06;;;;;;;6.13;2.28;;;17.50;96.60;;;;;;4954563;29;20051;-85
2021/08/24 00:50:47;;;;;;;4.07;1.90;;;17.50;96.60;;;;;;4957071;29;20032;-85
2021/08/24 00:53:17;;;;;;;5.30;2.22;;;17.50;96.50;;;;;;4957605;29;20396;-86
2021/08/24 00:55:44;;;;;;;4.57;1.70;;;17.50;96.50;;;;;;4955618;28;20609;-87
2021/08/24 00:58:12;;;;;;;3.83;1.90;;;17.40;96.60;;;;;;4957951;29;20031;-86
2021/08/24 01:00:39;;;;;;;3.95;2.13;;;17.40;96.60;;;;;;4955791;29;20067;-86
2021/08/24 01:03:11;;;;;;;3.72;1.95;;;17.30;96.60;;;;;;4954552;29;20524;-85
2021/08/24 01:05:39;;;;;;;4.35;2.00;;;17.30;96.70;;;;;;4956745;28;20065;-87
2021/08/24 01:08:11;;;;;;;4.18;1.73;;;17.30;96.80;;;;;;4956116;29;20053;-85
2021/08/24 01:10:42;;;;;;;3.20;1.73;;;17.30;96.90;;;;;;4956308;29;20027;-85
2021/08/24 01:13:34;;;;;;;3.53;1.88;;;17.20;96.90;;;;;;4956132;29;20027;-86
2021/08/24 01:16:42;;;;;;;4.65;2.40;;;17.30;97.00;;;;;;4954990;28;20516;-86
2021/08/24 01:19:29;;;;;;;4.05;2.00;;;17.20;97.00;;;;;;4957794;28;20027;-86
2021/08/24 01:22:19;;;;;;;3.90;2.10;;;17.20;97.00;;;;;;4961552;29;20547;-85
2021/08/24 01:25:23;;;;;;;4.13;2.00;;;17.20;97.00;;;;;;4959304;29;20123;-86
2021/08/24 01:28:09;;;;;;;5.18;2.10;;;17.20;97.00;;;;;;4959112;29;20070;-85
2021/08/24 01:30:53;;;;;;;4.22;2.10;;;17.10;97.00;;;;;;4958664;28;20039;-86
2021/08/24 01:33:28;;;;;;;5.28;2.17;;;17.10;97.20;;;;;;4955847;29;20023;-85
2021/08/24 01:36:09;;;;;;;3.75;2.10;;;17.10;97.20;;;;;;4953107;28;20121;-86
2021/08/24 01:38:54;;;;;;;4.70;1.95;;;17.00;97.30;;;;;;4953211;29;20030;-85
2021/08/24 01:41:51;;;;;;;4.53;2.10;;;17.00;97.40;;;;;;4953052;29;20023;-86
2021/08/24 01:44:23;;;;;;;4.75;2.13;;;16.90;97.40;;;;;;4954197;29;20110;-85
2021/08/24 01:47:05;;;;;;;4.88;2.10;;;16.90;97.60;;;;;;4954463;28;20093;-85
2021/08/24 01:49:40;;;;;;;4.28;1.90;;;16.80;97.60;;;;;;4953877;29;20031;-85
2021/08/24 01:52:10;;;;;;;3.13;1.80;;;16.80;97.70;;;;;;4953020;29;20031;-85
2021/08/24 01:54:45;;;;;;;3.90;1.80;;;16.80;98.00;;;;;;4952287;29;20038;-85
2021/08/24 01:57:17;;;;;;;3.33;1.95;;;16.80;97.80;;;;;;4952819;28;20050;-86
2021/08/24 02:00:15;;;;;;;3.75;2.00;;;16.80;97.80;;;;;;4952239;29;20027;-85
2021/08/24 02:02:52;;;;;;;6.60;2.10;;;16.80;97.90;;;;;;4952530;29;20035;-85
2021/08/24 02:05:33;;;;;;;4.25;2.20;;;16.70;98.00;;;;;;4952741;28;20118;-85
2021/08/24 02:08:03;;;;;;;3.55;1.73;;;16.70;97.90;;;;;;4952710;29;20151;-85
2021/08/24 02:10:29;;;;;;;4.03;1.95;;;16.70;98.00;;;;;;4952047;29;20034;-85
2021/08/24 02:12:57;;;;;;;3.47;1.88;;;16.70;97.90;;;;;;4952472;29;20197;-85
2021/08/24 02:15:53;;;;;;;3.88;1.90;;;16.80;97.90;;;;;;4952239;28;20677;-85
2021/08/24 02:18:24;;;;;;;4.45;2.17;;;16.70;97.80;;;;;;4951924;28;20046;-86
2021/08/24 02:20:59;;;;;;;5.53;2.10;;;16.70;97.90;;;;;;4952221;29;20121;-85
2021/08/24 02:23:29;;;;;;;5.50;2.28;;;16.70;97.90;;;;;;4953961;29;20673;-85
2021/08/24 02:25:57;;;;;;;6.20;2.28;;;16.60;98.00;;;;;;4952497;28;20142;-86
2021/08/24 02:28:55;;;;;;;6.75;2.22;;;16.60;98.00;;;;;;4953046;29;20038;-86
2021/08/24 02:31:32;;;;;;;5.18;2.42;;;16.60;98.10;;;;;;4951761;29;20055;-85
2021/08/24 02:34:08;;;;;;;6.22;2.28;;;16.60;98.20;;;;;;4953392;29;20027;-85
2021/08/24 02:36:37;;;;;;;4.18;2.10;;;16.60;98.20;;;;;;4953617;28;20477;-85
2021/08/24 02:39:14;;;;;;;5.05;2.33;;;16.50;98.30;;;;;;4952936;29;20027;-85
2021/08/24 02:41:49;;;;;;;6.63;2.45;;;16.50;98.50;;;;;;4951705;29;20027;-86
2021/08/24 02:44:25;;;;;;;6.07;2.85;;;16.50;98.60;;;;;;4952153;29;20034;-85
2021/08/24 02:46:53;;;;;;;4.53;2.45;;;16.40;98.80;;;;;;4952134;28;20031;-85
2021/08/24 02:49:26;;;;;;;3.75;2.10;;;16.30;98.80;;;;;;4952733;29;20039;-85
2021/08/24 02:51:53;;;;;;;6.22;2.30;;;16.30;98.90;;;;;;4953404;29;20031;-85
2021/08/24 02:54:27;;;;;;;5.03;2.00;;;16.20;99.00;;;;;;4951681;29;20027;-86
2021/08/24 02:56:54;;;;;;;6.20;3.05;;;16.30;99.10;;;;;;4951993;28;20503;-86
2021/08/24 02:59:20;;;;;;;5.03;2.35;;;16.30;99.10;;;;;;4951129;29;20019;-86
2021/08/24 03:01:46;;;;;;;6.18;2.95;;;16.20;99.10;;;;;;4953217;28;20496;-86
2021/08/24 03:04:13;;;;;;;4.78;2.60;;;16.20;99.10;;;;;;4951777;29;20103;-86
2021/08/24 03:06:45;;;;;;;5.05;2.63;;;16.20;99.20;;;;;;4953005;28;20109;-86
2021/08/24 03:09:13;;;;;;;4.55;2.45;;;16.10;99.30;;;;;;4951253;29;20042;-85
2021/08/24 03:11:51;;;;;;;4.38;2.58;;;16.10;99.30;;;;;;4952777;29;20034;-86
2021/08/24 03:14:46;;;;;;;5.43;2.50;;;16.00;99.40;;;;;;4951492;29;20040;-85
2021/08/24 03:17:48;;;;;;;7.07;2.70;;;16.00;99.40;;;;;;4953054;28;20020;-86
2021/08/24 03:20:15;;;;;;;5.82;3.00;;;16.00;99.60;;;;;;4952550;29;20094;-85
2021/08/24 03:22:43;;;;;;;7.47;2.63;;;16.00;99.70;;;;;;4951707;29;20028;-86
2021/08/24 03:25:10;;;;;;;6.47;2.90;;;15.90;99.60;;;;;;4951030;28;20031;-85
2021/08/24 03:27:39;;;;;;;7.30;2.78;;;16.00;99.80;;;;;;4951667;29;20042;-85
2021/08/24 03:30:08;;;;;;;5.18;2.53;;;16.00;99.80;;;;;;4952176;29;20469;-86
2021/08/24 03:32:34;;;;;;;5.32;2.75;;;15.90;99.80;;;;;;4952947;29;20046;-85
2021/08/24 03:35:00;;;;;;;5.65;2.85;;;15.90;99.80;;;;;;4951393;29;20075;-85
2021/08/24 03:37:25;;;;;;;5.43;2.58;;;16.00;99.80;;;;;;4952930;28;20452;-85
2021/08/24 03:39:51;;;;;;;7.22;2.88;;;16.00;99.80;;;;;;4950771;29;20034;-85
2021/08/24 03:42:17;;;;;;;5.20;2.85;;;15.90;99.80;;;;;;4954660;28;20023;-85
2021/08/24 03:44:43;;;;;;;5.45;2.92;;;15.90;99.80;;;;;;4955321;29;20035;-85
2021/08/24 03:47:10;;;;;;;5.85;3.03;;;15.90;99.90;;;;;;4955440;28;20059;-86
2021/08/24 03:49:37;;;;;;;6.13;3.10;;;15.90;99.90;;;;;;4956247;29;20121;-85
2021/08/24 03:52:04;;;;;;;7.35;2.90;;;15.90;99.90;;;;;;4955355;29;20058;-85
2021/08/24 03:54:29;;;;;;;7.13;3.20;;;15.90;99.90;;;;;;4956181;29;20463;-86
2021/08/24 03:56:55;;;;;;;5.45;3.20;;;16.00;99.90;;;;;;4955278;28;20028;-86
2021/08/24 03:59:21;;;;;;;7.65;3.33;;;16.00;99.80;;;;;;4955809;29;20027;-85
2021/08/24 04:01:46;;;;;;;6.63;2.90;;;16.00;99.80;;;;;;4956509;29;20027;-85
2021/08/24 04:04:12;;;;;;;8.35;3.20;;;16.00;99.80;;;;;;4955266;29;20035;-85
2021/08/24 04:06:37;;;;;;;5.40;3.00;;;16.00;99.80;;;;;;4956227;28;20346;-85
2021/08/24 04:09:03;;;;;;;5.60;2.90;;;16.00;99.80;;;;;;4955897;29;20035;-85
2021/08/24 04:11:29;;;;;;;5.55;2.90;;;15.90;99.80;;;;;;4956115;29;20078;-85
2021/08/24 04:13:54;;;;;;;5.88;3.03;;;15.90;99.90;;;;;;4954848;29;20472;-85
2021/08/24 04:16:20;;;;;;;6.60;3.10;;;15.90;99.90;;;;;;4954681;28;20031;-85
2021/08/24 04:18:46;;;;;;;6.93;3.28;;;15.90;99.90;;;;;;4954550;29;20027;-86
2021/08/24 04:21:14;;;;;;;6.18;2.67;;;15.80;99.90;;;;;;4954305;29;20511;-85
2021/08/24 04:23:41;;;;;;;11.57;2.95;;;15.80;99.90;;;;;;4954819;29;20034;-87
2021/08/24 04:26:07;;;;;;;6.63;3.22;;;15.80;99.90;;;;;;4954648;28;20485;-85
2021/08/24 04:28:33;;;;;;;7.65;3.47;;;15.70;99.90;;;;;;4954535;29;20395;-85
2021/08/24 04:30:59;;;;;;;7.63;3.70;;;15.70;99.90;;;;;;4953874;29;20419;-85
2021/08/24 04:33:25;;;;;;;6.35;3.53;;;15.70;99.90;;;;;;4954013;29;20059;-86
2021/08/24 04:35:52;;;;;;;9.68;3.40;;;15.70;99.90;;;;;;4955014;28;20106;-85
2021/08/24 04:38:18;;;;;;;5.55;2.88;;;15.70;99.90;;;;;;4954249;29;20020;-85
2021/08/24 04:40:44;;;;;;;6.95;3.28;;;15.70;99.90;;;;;;4952231;29;20114;-85
2021/08/24 04:43:10;;;;;;;6.75;3.17;;;15.60;99.90;;;;;;4954131;29;20030;-85
2021/08/24 04:45:35;;;;;;;5.47;3.22;;;15.70;99.90;;;;;;4953593;28;20488;-86
2021/08/24 04:48:01;;;;;;;6.57;3.25;;;15.70;99.90;;;;;;4955580;29;20121;-86
2021/08/24 04:50:27;;;;;;;11.70;5.00;;;15.60;99.90;;;;;;4953562;29;20396;-86
2021/08/24 04:52:52;;;;;;;8.45;3.45;;;15.60;99.90;;;;;;4953682;28;20031;-85
2021/08/24 04:55:18;;;;;;;6.47;3.42;;;15.60;99.90;;;;;;4955907;28;20031;-85
2021/08/24 04:57:43;;;;;;;6.35;3.10;;;15.60;99.90;;;;;;4954284;29;20118;-85
2021/08/24 05:00:09;;;;;;;9.05;3.47;;;15.60;99.90;;;;;;4953535;29;20441;-85
2021/08/24 05:02:35;;;;;;;7.53;3.60;;;15.60;99.90;;;;;;4954515;29;20027;-85
2021/08/24 05:05:01;;;;;;;5.85;3.58;;;15.50;99.90;;;;;;4956310;29;20028;-85
2021/08/24 05:07:28;;;;;;;6.07;3.40;;;15.50;99.90;;;;;;4954899;29;20031;-86
2021/08/24 05:09:53;;;;;;;7.90;3.33;;;15.60;99.90;;;;;;4955440;29;20098;-85
2021/08/24 05:12:19;;;;;;;5.93;3.78;;;15.60;99.90;;;;;;4956807;29;20129;-86
2021/08/24 05:14:45;;;;;;;6.20;3.38;;;15.60;99.90;;;;;;4956266;29;20031;-84
2021/08/24 05:17:10;;;;;;;6.75;3.55;;;15.60;99.90;;;;;;4955257;28;20028;-85
2021/08/24 05:19:36;;;;;;;8.65;3.97;;;15.60;99.90;;;;;;4954363;29;20079;-85
2021/08/24 05:22:01;;;;;;;8.35;4.25;;;15.60;99.90;;;;;;4954861;29;20070;-87
2021/08/24 05:24:27;;;;;;;9.75;4.90;;;15.70;99.90;;;;;;4953312;29;20027;-87
2021/08/24 05:26:53;;;;;;;8.13;4.47;;;15.60;99.90;;;;;;4953362;28;20097;-87
2021/08/24 05:29:18;;;;;;;9.45;4.38;;;15.60;99.90;;;;;;4954096;29;20486;-86
2021/08/24 05:31:50;;;;;;;10.43;4.80;;;15.60;99.90;;;;;;4953528;29;20129;-87
2021/08/24 05:34:16;;;;;;;9.38;4.60;;;15.70;99.90;;;;;;4953424;29;20086;-88
2021/08/24 05:36:41;;;;;;;7.97;4.03;;;15.70;99.90;;;;;;4953803;28;20023;-86
2021/08/24 05:39:07;;;;;;;10.50;4.53;;;15.80;99.90;;;;;;4954558;29;20027;-88
2021/08/24 05:41:33;;;;;;;7.95;4.43;;;15.80;99.90;;;;;;4953212;29;20030;-87
2021/08/24 05:43:59;;;;;;;8.23;4.35;;;15.90;99.90;;;;;;4953338;29;20064;-86
2021/08/24 05:46:24;;;;;;;6.70;3.85;;;15.90;99.90;;;;;;4954313;28;20027;-87
2021/08/24 05:48:50;;;;;;;8.50;4.22;;;15.90;99.90;;;;;;4954006;29;20082;-88
2021/08/24 05:51:19;;;;;;;8.05;3.85;;;16.10;99.90;;;;;;4953956;29;20134;-86
2021/08/24 05:53:44;;;;;;;8.85;5.00;;;16.00;99.90;;;;;;4953072;29;20030;-88
2021/08/24 05:56:14;;;;;;;8.75;4.18;;;16.00;99.90;;;;;;4952925;28;20031;-87
2021/08/24 05:58:40;;;;;;;8.52;4.80;;;16.00;99.90;;;;;;4953019;29;20421;-88
2021/08/24 06:01:07;;;;;;;8.52;4.28;;;15.90;99.90;;;;;;4952809;29;20089;-88
2021/08/24 06:03:33;;;;;;;7.95;4.50;;;16.00;99.90;;;;;;4954196;28;20078;-87
2021/08/24 06:05:59;;;;;;;8.63;4.32;;;16.10;99.90;;;;;;4952172;28;20027;-88
2021/08/24 06:08:28;;;;;;;10.73;4.63;;;16.10;99.90;;;;;;4952794;29;20037;-88
2021/08/24 06:10:53;;;;;;;8.95;4.85;;;16.10;99.90;;;;;;4952365;29;20027;-88
2021/08/24 06:13:19;;;;;;;7.07;4.55;;;16.20;99.90;;;;;;4952794;29;20039;-87
2021/08/24 06:15:45;;;;;;;8.98;5.35;;;16.20;99.90;;;;;;4952209;28;20031;-87
2021/08/24 06:18:10;;;;;;;8.93;4.50;;;16.30;99.90;;;;;;4953836;29;20037;-87
2021/08/24 06:20:37;;;;;;;12.73;5.25;;;16.20;99.90;;;;;;4952194;29;20658;-87
2021/08/24 06:23:03;;;;;;;8.57;4.90;;;16.30;99.90;;;;;;4952533;29;20116;-89
2021/08/24 06:25:29;;;;;;;8.85;5.00;;;16.20;99.90;;;;;;4953561;28;20039;-88
2021/08/24 06:27:54;;;;;;;7.55;4.97;;;16.30;99.90;;;;;;4952471;29;20110;-87
2021/08/24 06:30:21;;;;;;;8.48;4.95;;;16.20;99.90;;;;;;4952189;29;20031;-88
2021/08/24 06:32:51;;;;;;;8.30;5.13;;;16.30;99.90;;;;;;4952346;29;20117;-88
2021/08/24 06:35:18;;;;;;;9.52;5.00;;;16.30;99.90;;;;;;4951932;28;20439;-87
2021/08/24 06:37:44;;;;;;;9.93;5.88;;;16.40;99.90;;;;;;4952437;29;20038;-88
2021/08/24 06:40:11;;;;;;;10.15;5.43;;;16.50;99.90;;;;;;4952040;29;20023;-88
2021/08/24 06:42:47;;;;;;;8.00;5.32;;;16.40;99.90;;;;;;4951980;29;20415;-86
2021/08/24 06:45:24;;;;;;;9.85;5.20;;;16.40;99.90;;;;;;4953474;28;20046;-85
2021/08/24 06:47:50;;;;;;;10.50;5.13;;;16.40;99.90;;;;;;4951796;29;20167;-85
2021/08/24 06:50:16;;;;;;;9.45;5.00;;;16.50;99.90;;;;;;4950961;29;20050;-86
2021/08/24 06:52:42;;;;;;;9.35;5.38;;;16.50;99.90;;;;;;4951745;29;20031;-86
2021/08/24 06:55:09;;;;;;;9.98;5.22;;;16.60;99.90;;;;;;4951190;28;20183;-86
2021/08/24 06:57:38;;;;;;;9.70;6.00;;;16.70;99.90;;;;;;4951470;29;20142;-85
2021/08/24 07:00:05;;;;;;;;;;;16.80;99.90;;;;;;4952405;28;20171;-85
2021/08/24 07:02:30;;;;;;;10.95;5.32;;;16.80;99.90;;;;;;4952270;28;19972;-86
2021/08/24 07:04:56;;;;;;;10.38;5.63;;;16.90;99.90;;;;;;4953464;28;20031;-85
2021/08/24 07:07:22;;;;;;;9.40;5.28;;;16.90;99.90;;;;;;4952138;28;20082;-85
2021/08/24 07:09:48;;;;;;;10.75;5.70;;;17.00;99.90;;;;;;4951392;28;20060;-85
2021/08/24 07:12:14;;;;;;;9.13;5.72;;;16.90;99.90;;;;;;4956203;28;20036;-85
2021/08/24 07:14:39;;;;;;;11.38;5.80;;;17.00;99.90;;;;;;4954549;28;20086;-84
2021/08/24 07:17:05;;;;;;;9.88;5.72;;;17.00;99.90;;;;;;4955947;28;20107;-85
2021/08/24 07:19:32;;;;;;;10.02;5.63;;;17.10;99.90;;;;;;4953947;28;20073;-85
2021/08/24 07:22:03;;;;;;;10.13;5.47;;;17.10;99.90;;;;;;4953249;28;20042;-86
2021/08/24 07:24:28;;;;;;;10.30;5.53;;;17.10;99.90;;;;;;4948566;28;20114;-87
2021/08/24 07:26:54;;;;;;;9.40;5.55;;;17.20;99.90;;;;;;4954186;28;20130;-86
2021/08/24 07:29:20;;;;;;;10.30;5.68;;;17.20;99.70;;;;;;4957382;29;20031;-85
2021/08/24 07:31:45;;;;;;;9.25;5.25;;;17.20;99.20;;;;;;4955145;29;20034;-85
2021/08/24 07:34:11;;;;;;;8.57;4.95;;;17.30;99.10;;;;;;4955172;29;20023;-87
2021/08/24 07:36:37;;;;;;;7.95;4.30;;;17.30;98.80;;;;;;4957769;28;20019;-85
2021/08/24 07:39:04;;;;;;;7.93;5.20;;;17.40;98.60;;;;;;4958028;29;20375;-84
2021/08/24 07:41:31;;;;;;;11.25;5.00;;;17.40;98.20;;;;;;4953301;29;20055;-85
2021/08/24 07:43:57;;;;;;;8.95;4.35;;;17.40;98.10;;;;;;4953914;29;20342;-86
2021/08/24 07:46:23;;;;;;;7.72;4.35;;;17.50;97.90;;;;;;4953354;28;20102;-87
2021/08/24 07:48:48;;;;;;;9.00;4.30;;;17.50;97.60;;;;;;4953378;29;20027;-89
2021/08/24 07:51:14;;;;;;;7.50;4.15;;;17.50;97.50;;;;;;4954975;29;20137;-84
2021/08/24 07:53:40;;;;;;;8.40;4.57;;;17.50;97.20;;;;;;4954737;29;20024;-86
2021/08/24 07:56:09;;;;;;;9.05;5.13;;;17.50;97.30;;;;;;4954174;28;20031;-85
2021/08/24 07:58:37;;;;;;;10.52;5.03;;;17.50;97.00;;;;;;4953605;29;20028;-85
2021/08/24 08:01:03;;;;;;;7.82;4.00;;;17.60;96.50;;;;;;4950807;29;20038;-86
2021/08/24 08:03:29;;;;;;;7.03;3.92;;;17.60;96.50;;;;;;4951461;29;20027;-86
2021/08/24 08:05:55;;;;;;;7.72;3.72;;;17.60;96.50;;;;;;4952477;28;20023;-85
2021/08/24 08:08:20;;;;;;;6.88;4.15;;;17.70;96.60;;;;;;4951545;29;20082;-85
2021/08/24 08:10:46;;;;;;;5.80;3.03;;;17.70;96.30;;;;;;4949295;29;20024;-85
2021/08/24 08:13:12;;;;;;;5.85;3.40;;;17.80;96.40;;;;;;4951015;29;20431;-85
2021/08/24 08:15:38;;;;;;;8.25;3.63;;;17.80;96.40;;;;;;4950578;28;20118;-86
2021/08/24 08:18:06;;;;;;;6.18;3.15;;;17.80;96.10;;;;;;4951510;29;20118;-86
2021/08/24 08:20:32;;;;;;;7.05;3.40;;;17.90;95.90;;;;;;4950870;29;20530;-86
2021/08/24 08:23:01;;;;;;;7.40;3.63;;;17.90;95.60;;;;;;4953662;29;20102;-85
2021/08/24 08:25:27;;;;;;;6.30;2.90;;;17.90;95.40;;;;;;4950434;28;20042;-85
2021/08/24 08:27:53;;;;;;;5.90;2.80;;;18.00;95.20;;;;;;4952171;28;20343;-85
2021/08/24 08:30:18;;;;;;;4.25;2.28;;;18.00;93.50;;;;;;4956383;29;20125;-86
2021/08/24 08:32:44;;;;;;;3.80;2.03;;;18.00;93.00;;;;;;4956490;29;20027;-85
2021/08/24 08:35:12;;;;;;;5.38;2.80;;;18.10;92.70;;;;;;4956361;28;20034;-86
2021/08/24 08:37:38;;;;;;;5.95;2.55;;;18.10;93.10;;;;;;4955429;29;20031;-85
2021/08/24 08:40:06;;;;;;;4.70;2.40;;;18.10;92.40;;;;;;4953466;29;20103;-85
2021/08/24 08:43:20;;;;;;;5.85;2.42;;;18.10;92.10;;;;;;4956572;29;20432;-85
2021/08/24 08:45:49;;;;;;;5.90;2.40;;;18.20;91.00;;;;;;4955024;28;20522;-85
2021/08/24 08:48:40;;;;;;;4.00;2.03;;;18.20;90.30;;;;;;4955324;29;20515;-85
2021/08/24 08:51:32;;;;;;;6.55;2.40;;;18.20;90.40;;;;;;4954637;29;20154;-85
2021/08/24 08:54:26;;;;;;;5.63;2.40;;;18.30;89.10;;;;;;4954525;29;20042;-85
2021/08/24 08:57:16;;;;;;;4.50;2.33;;;18.30;89.20;;;;;;4956945;28;20019;-85
2021/08/24 08:59:58;;;;;;;5.00;2.28;;;18.40;89.60;;;;;;4953889;29;20472;-85
2021/08/24 09:02:48;;;;;;;5.43;2.30;;;18.40;88.40;;;;;;4956079;29;20101;-85
2021/08/24 09:05:16;;;;;;;8.80;2.10;;;18.50;88.20;;;;;;4955235;28;20054;-85
2021/08/24 09:07:46;;;;;;;6.75;2.33;;;18.50;87.00;;;;;;4955724;29;20038;-86
2021/08/24 09:10:38;;;;;;;5.78;2.33;;;18.60;86.50;;;;;;4954210;29;20035;-85
2021/08/24 09:13:14;;;;;;;4.57;2.20;;;18.60;86.30;;;;;;4958988;29;20038;-85
2021/08/24 09:15:47;;;;;;;5.38;2.40;;;18.60;86.40;;;;;;4957742;28;20035;-85
2021/08/24 09:18:19;;;;;;;4.95;2.20;;;18.60;86.30;;;;;;4956565;29;20074;-85
2021/08/24 09:21:02;;;;;;;4.07;2.22;;;18.60;86.10;;;;;;4954093;29;20028;-85
2021/08/24 09:23:29;;;;;;;4.35;2.33;;;18.60;86.30;;;;;;4954672;29;20023;-86
2021/08/24 09:26:11;;;;;;;5.20;2.08;;;18.70;87.60;;;;;;4954291;28;20071;-85
2021/08/24 09:28:37;;;;;;;5.70;2.42;;;18.70;85.30;;;;;;4954910;29;20235;-85
2021/08/24 09:31:03;;;;;;;4.45;2.03;;;18.80;85.20;;;;;;4955267;29;20032;-85
2021/08/24 09:33:31;;;;;;;6.95;2.45;;;18.80;85.90;;;;;;4954008;29;20126;-86
2021/08/24 09:35:58;;;;;;;5.10;2.25;;;18.80;85.70;;;;;;4954062;28;20467;-86
2021/08/24 09:38:31;;;;;;;6.05;2.40;;;18.80;86.50;;;;;;4954507;28;20062;-86
2021/08/24 09:41:37;;;;;;;6.70;2.65;;;18.90;86.60;;;;;;4953250;29;20425;-85
2021/08/24 09:44:24;;;;;;;5.97;2.33;;;18.90;85.90;;;;;;4953571;29;20031;-85
2021/08/24 09:46:52;;;;;;;4.93;2.15;;;18.90;86.40;;;;;;4937288;29;20160;-87
2021/08/24 09:49:21;;;;;;;4.50;2.00;;;18.90;85.70;;;;;;4946202;29;20242;-86
2021/08/24 09:52:01;;;;;;;5.57;2.20;;;19.00;85.20;;;;;;4955725;29;20051;-86
2021/08/24 09:54:47;;;;;;;4.70;2.40;;;19.10;83.90;;;;;;4953518;29;20031;-85
2021/08/24 09:57:27;;;;;;;5.07;2.15;;;19.10;82.40;;;;;;4955757;28;20027;-86
2021/08/24 10:00:08;;;;;;;4.43;2.20;;;19.10;82.60;;;;;;4955436;29;20039;-86
2021/08/24 10:02:48;;;;;;;4.30;2.10;;;19.10;83.30;;;;;;4954171;29;20330;-85
2021/08/24 10:05:36;;;;;;;6.32;2.78;;;19.20;84.20;;;;;;4954304;28;20568;-86
2021/08/24 10:08:41;;;;;;;4.65;2.40;;;19.20;83.90;;;;;;4955970;29;20066;-85
2021/08/24 10:11:13;;;;;;;7.60;2.40;;;19.20;82.30;;;;;;4953737;29;20063;-85
2021/08/24 10:13:44;;;;;;;7.68;2.22;;;19.30;82.40;;;;;;4954194;29;20027;-86
2021/08/24 10:16:27;;;;;;;4.03;2.20;;;19.30;82.80;;;;;;4953465;28;20027;-85
2021/08/24 10:19:26;;;;;;;4.07;2.30;;;19.30;82.60;;;;;;4953392;29;20031;-85
2021/08/24 10:21:56;;;;;;;4.40;2.22;;;19.30;82.40;;;;;;4955291;29;20337;-85
2021/08/24 10:24:30;;;;;;;5.10;2.50;;;19.40;82.50;;;;;;4953691;29;20038;-86
2021/08/24 10:26:58;;;;;;;4.07;2.17;;;19.40;81.90;;;;;;4958809;28;20075;-86
2021/08/24 10:29:33;;;;;;;4.65;2.42;;;19.40;81.10;;;;;;4958860;29;20031;-86
2021/08/24 10:32:03;;;;;;;4.63;2.60;;;19.40;80.80;;;;;;4960784;29;20082;-86
2021/08/24 10:34:43;;;;;;;4.50;2.50;;;19.50;80.90;;;;;;4957226;29;20030;-86
2021/08/24 10:37:14;;;;;;;5.38;2.50;;;19.50;81.70;;;;;;4953113;28;20030;-86
2021/08/24 10:39:40;;;;;;;4.80;2.50;;;19.50;82.00;;;;;;4950939;29;20054;-86
2021/08/24 10:42:06;;;;;;;4.82;2.50;;;19.50;82.00;;;;;;4952802;29;20461;-86
2021/08/24 10:44:53;;;;;;;4.78;2.58;;;19.50;82.00;;;;;;4951385;29;20166;-86
2021/08/24 10:47:47;;;;;;;7.95;3.92;;;19.60;82.20;;;;;;4952866;28;20114;-86
2021/08/24 10:50:32;;;;;;;6.22;2.30;;;19.60;82.30;;;;;;4951739;28;20035;-86
2021/08/24 10:53:25;;;;;;;4.53;2.08;;;19.60;82.00;;;;;;4951707;29;20377;-85
2021/08/24 10:56:17;;;;;;;4.30;2.17;;;19.60;82.20;;;;;;4949945;28;20037;-87
2021/08/24 10:59:21;;;;;;;5.22;2.63;;;19.70;83.40;;;;;;4954786;29;20418;-86
2021/08/24 11:02:28;;;;;;;4.47;2.42;;;19.70;81.20;;;;;;4957413;29;20046;-86
2021/08/24 11:05:15;;;;;;;8.82;2.67;;;19.80;82.40;;;;;;4957465;29;20223;-86
2021/08/24 11:07:56;;;;;;;7.28;3.30;;;19.80;81.00;;;;;;4956530;29;20031;-86
2021/08/24 11:10:52;;;;;;;7.53;3.28;;;19.80;79.70;;;;;;4952353;29;20035;-86
2021/08/24 11:14:00;;;;;;;5.10;2.70;;;19.90;79.10;;;;;;4951174;29;20359;-86
2021/08/24 11:17:19;;;;;;;6.70;2.50;;;19.90;78.60;;;;;;4950623;28;20449;-86
2021/08/24 11:20:18;;;;;;;5.38;2.55;;;19.90;78.60;;;;;;4949238;29;20074;-86
2021/08/24 11:22:46;;;;;;;5.00;2.50;;;19.90;78.20;;;;;;4933979;29;20496;-87
2021/08/24 11:25:23;;;;;;;4.13;2.30;;;19.90;79.00;;;;;;4949308;28;20027;-86
2021/08/24 11:27:57;;;;;;;5.95;2.47;;;19.90;79.50;;;;;;4951085;29;20034;-86
2021/08/24 11:30:57;;;;;;;4.65;2.65;;;19.90;79.20;;;;;;4951575;29;20027;-86
2021/08/24 11:33:41;;;;;;;6.18;2.47;;;20.00;78.90;;;;;;4952089;29;20031;-86
2021/08/24 11:36:27;;;;;;;4.57;2.65;;;20.00;79.50;;;;;;4952064;28;20023;-87
2021/08/24 11:39:01;;;;;;;6.03;2.80;;;20.00;78.50;;;;;;4950370;29;20090;-88
2021/08/24 11:41:28;;;;;;;6.28;2.40;;;20.00;78.10;;;;;;4950081;29;20034;-86
2021/08/24 11:44:05;;;;;;;5.30;2.67;;;20.10;76.60;;;;;;4952065;29;20027;-86
2021/08/24 11:46:47;;;;;;;5.25;2.80;;;20.10;75.80;;;;;;4951905;28;20062;-87
2021/08/24 11:49:21;;;;;;;5.30;2.75;;;20.10;73.20;;;;;;4951370;29;20023;-86
2021/08/24 11:52:11;;;;;;;6.10;3.03;;;20.10;73.10;;;;;;4950676;29;20019;-86
2021/08/24 11:54:51;;;;;;;8.02;2.83;;;20.10;72.90;;;;;;4949531;29;20038;-87
2021/08/24 11:57:33;;;;;;;6.28;3.28;;;20.10;72.70;;;;;;4952066;28;20401;-86
2021/08/24 11:59:59;;;;;;;6.20;2.92;;;20.20;71.20;;;;;;4950117;29;20499;-86
2021/08/24 12:02:32;;;;;;;6.88;2.92;;;20.20;70.60;;;;;;4950494;28;20031;-86
2021/08/24 12:04:58;;;;;;;6.50;3.05;;;20.20;71.30;;;;;;4955620;29;20110;-86
2021/08/24 12:07:37;;;;;;;4.97;2.70;;;20.20;72.60;;;;;;4954449;28;20564;-86
2021/08/24 12:10:24;;;;;;;5.95;2.60;;;20.20;73.10;;;;;;4952703;29;20023;-86
2021/08/24 12:13:04;;;;;;;5.75;2.63;;;20.20;74.30;;;;;;4954132;29;20476;-86
2021/08/24 12:15:35;;;;;;;5.15;2.58;;;20.20;74.50;;;;;;4953859;28;20118;-86
2021/08/24 12:18:19;;;;;;;4.03;2.20;;;20.20;74.50;;;;;;4955554;29;20540;-86
2021/08/24 12:20:53;;;;;;;7.85;2.50;;;20.20;74.60;;;;;;4953363;29;20023;-86
2021/08/24 12:23:36;;;;;;;4.53;2.40;;;20.30;75.20;;;;;;4953879;29;20392;-85
2021/08/24 12:26:34;;;;;;;5.20;2.40;;;20.20;76.10;;;;;;4952731;28;20110;-86
2021/08/24 12:29:08;;;;;;;5.72;2.50;;;20.30;75.00;;;;;;4953322;29;20129;-87
2021/08/24 12:31:46;;;;;;;5.35;2.63;;;20.30;75.50;;;;;;4954775;29;20111;-86
2021/08/24 12:34:33;;;;;;;6.38;2.50;;;20.30;75.30;;;;;;4953583;29;20166;-87
2021/08/24 12:37:03;;;;;;;5.63;2.25;;;20.30;75.90;;;;;;4955047;28;20024;-86
2021/08/24 12:39:40;;;;;;;5.80;2.30;;;20.40;76.10;;;;;;4951796;29;20461;-86
2021/08/24 12:42:18;;;;;;;6.05;2.10;;;20.30;75.60;;;;;;4955133;29;20019;-87
2021/08/24 12:44:50;;;;;;;5.05;2.13;;;20.30;76.00;;;;;;4954726;29;20177;-87
2021/08/24 12:47:29;;;;;;;7.43;2.90;;;20.30;75.60;;;;;;4953657;28;20039;-86
2021/08/24 12:50:15;;;;;;;3.25;1.85;;;20.30;75.50;;;;;;4952792;29;20035;-86
2021/08/24 12:52:48;;;;;;;4.60;2.08;;;20.40;74.80;;;;;;4954500;29;20066;-86
2021/08/24 12:55:16;;;;;;;6.53;2.47;;;20.40;74.80;;;;;;4953490;28;20516;-86
2021/08/24 12:57:46;;;;;;;4.28;2.35;;;20.40;75.20;;;;;;4954786;29;20031;-86
2021/08/24 13:00:11;;;;;;;4.82;2.30;;;20.50;75.00;;;;;;4952579;29;20019;-86
2021/08/24 13:02:38;;;;;;;4.90;2.30;;;20.50;75.60;;;;;;4953604;29;20507;-86
2021/08/24 13:05:13;;;;;;;4.07;2.20;;;20.50;75.40;;;;;;4954619;29;20368;-86
2021/08/24 13:08:04;;;;;;;5.72;2.33;;;20.50;74.80;;;;;;4953494;29;20023;-87
2021/08/24 13:10:34;;;;;;;4.97;2.20;;;20.50;75.40;;;;;;4955206;29;20119;-86
2021/08/24 13:13:03;;;;;;;5.50;2.45;;;20.50;75.80;;;;;;4961873;29;20058;-85
2021/08/24 13:15:42;;;;;;;5.40;2.13;;;20.50;74.90;;;;;;4960203;28;20382;-86